createdAt,value
2018-05-27T00:01:34.575Z,51.00
2018-05-27T00:04:02.087Z,51.00
2018-05-27T00:06:29.612Z,51.00
2018-05-27T00:08:57.452Z,50.90
2018-05-27T00:11:24.969Z,51.50
2018-05-27T00:13:52.555Z,51.30
2018-05-27T00:16:20.040Z,51.30
2018-05-27T00:18:47.555Z,51.80
2018-05-27T00:21:15.068Z,51.30
2018-05-27T00:23:42.643Z,52.00
2018-05-27T00:26:10.171Z,52.00
2018-05-27T00:28:37.682Z,51.80
2018-05-27T00:31:05.209Z,51.90
2018-05-27T00:33:32.732Z,52.10
2018-05-27T00:36:00.243Z,52.10
2018-05-27T00:38:27.751Z,52.10
2018-05-27T00:40:55.264Z,51.90
2018-05-27T00:43:22.912Z,52.30
2018-05-27T00:45:50.428Z,53.20
2018-05-27T00:48:17.960Z,53.60
2018-05-27T00:50:45.482Z,53.70
2018-05-27T00:53:13.823Z,54.20
2018-05-27T00:55:41.427Z,53.70
2018-05-27T00:58:08.935Z,53.60
2018-05-27T01:00:36.453Z,53.20
2018-05-27T01:03:04.178Z,53.30
2018-05-27T01:05:31.683Z,53.80
2018-05-27T01:07:59.187Z,53.50
2018-05-27T01:10:26.711Z,53.80
2018-05-27T01:12:54.232Z,54.10
2018-05-27T01:15:21.747Z,54.60
2018-05-27T01:17:49.265Z,54.50
2018-05-27T01:20:16.776Z,55.00
2018-05-27T01:22:44.323Z,54.70
2018-05-27T01:25:11.846Z,54.60
2018-05-27T01:27:39.358Z,54.70
2018-05-27T01:30:06.866Z,54.30
2018-05-27T01:32:34.390Z,55.00
2018-05-27T01:35:01.908Z,55.30
2018-05-27T01:37:29.430Z,54.90
2018-05-27T01:39:56.947Z,54.60
2018-05-27T01:42:24.483Z,54.70
2018-05-27T01:44:53.064Z,54.90
2018-05-27T01:47:20.579Z,55.10
2018-05-27T01:49:48.103Z,54.60
2018-05-27T01:52:15.612Z,54.50
2018-05-27T01:54:43.907Z,55.00
2018-05-27T01:57:11.435Z,55.00
2018-05-27T01:59:38.971Z,55.50
2018-05-27T02:02:06.487Z,55.50
2018-05-27T02:04:34.021Z,55.50
2018-05-27T02:07:01.544Z,56.20
2018-05-27T02:09:29.063Z,55.70
2018-05-27T02:11:56.591Z,55.70
2018-05-27T02:14:24.112Z,55.90
2018-05-27T02:16:51.647Z,55.90
2018-05-27T02:19:19.167Z,56.10
2018-05-27T02:21:46.693Z,56.00
2018-05-27T02:24:14.224Z,57.20
2018-05-27T02:26:41.738Z,56.60
2018-05-27T02:29:09.254Z,56.80
2018-05-27T02:31:36.775Z,57.10
2018-05-27T02:34:04.292Z,57.10
2018-05-27T02:36:31.807Z,57.30
2018-05-27T02:38:59.316Z,57.40
2018-05-27T02:41:27.624Z,57.90
2018-05-27T02:43:55.152Z,57.90
2018-05-27T02:46:22.659Z,58.30
2018-05-27T02:48:50.179Z,58.30
2018-05-27T02:51:17.689Z,58.60
2018-05-27T02:53:45.202Z,58.30
2018-05-27T02:56:12.734Z,57.90
2018-05-27T02:58:40.262Z,57.90
2018-05-27T03:01:07.779Z,58.20
2018-05-27T03:03:35.317Z,58.50
2018-05-27T03:06:02.843Z,59.00
2018-05-27T03:08:30.360Z,59.10
2018-05-27T03:10:58.665Z,59.00
2018-05-27T03:13:26.186Z,59.00
2018-05-27T03:15:53.720Z,59.10
2018-05-27T03:18:21.255Z,59.30
2018-05-27T03:20:48.831Z,59.80
2018-05-27T03:23:16.343Z,60.00
2018-05-27T03:25:43.867Z,60.00
2018-05-27T03:28:11.379Z,59.90
2018-05-27T03:30:38.915Z,60.00
2018-05-27T03:33:06.436Z,60.00
2018-05-27T03:35:33.956Z,60.00
2018-05-27T03:38:01.467Z,60.20
2018-05-27T03:40:28.982Z,60.10
2018-05-27T03:42:56.497Z,60.20
2018-05-27T03:45:24.003Z,60.40
2018-05-27T03:47:51.566Z,60.30
2018-05-27T03:50:19.083Z,60.70
2018-05-27T03:52:46.598Z,60.30
2018-05-27T03:55:14.890Z,60.00
2018-05-27T03:57:42.403Z,60.00
2018-05-27T04:00:10.741Z,59.30
2018-05-27T04:02:38.262Z,59.70
2018-05-27T04:05:17.368Z,59.20
2018-05-27T04:07:56.564Z,59.40
2018-05-27T04:10:24.090Z,59.60
2018-05-27T04:12:52.366Z,59.60
2018-05-27T04:15:19.897Z,59.80
2018-05-27T04:17:47.411Z,59.90
2018-05-27T04:20:14.924Z,60.30
2018-05-27T04:22:42.439Z,60.20
2018-05-27T04:25:09.952Z,60.10
2018-05-27T04:27:37.467Z,60.30
2018-05-27T04:30:04.987Z,59.50
2018-05-27T04:32:32.498Z,59.10
2018-05-27T04:35:00.011Z,59.30
2018-05-27T04:37:27.534Z,58.80
2018-05-27T04:39:55.834Z,58.20
2018-05-27T04:42:23.344Z,58.20
2018-05-27T04:44:50.859Z,58.20
2018-05-27T04:47:18.383Z,58.40
2018-05-27T04:49:45.916Z,59.00
2018-05-27T04:52:13.430Z,58.50
2018-05-27T04:54:40.951Z,58.40
2018-05-27T04:57:08.461Z,58.80
2018-05-27T04:59:35.985Z,58.50
2018-05-27T05:02:03.507Z,58.40
2018-05-27T05:04:31.039Z,58.40
2018-05-27T05:06:58.575Z,58.20
2018-05-27T05:09:26.100Z,58.50
2018-05-27T05:11:53.653Z,58.00
2018-05-27T05:14:21.212Z,57.80
2018-05-27T05:16:48.743Z,58.40
2018-05-27T05:19:17.039Z,58.20
2018-05-27T05:21:44.610Z,58.60
2018-05-27T05:24:12.130Z,57.70
2018-05-27T05:26:39.671Z,57.40
2018-05-27T05:29:07.195Z,57.40
2018-05-27T05:31:34.718Z,57.20
2018-05-27T05:34:02.272Z,57.30
2018-05-27T05:36:29.796Z,57.10
2018-05-27T05:38:57.312Z,56.90
2018-05-27T05:41:24.832Z,57.10
2018-05-27T05:43:52.379Z,57.10
2018-05-27T05:46:19.895Z,57.30
2018-05-27T05:48:47.413Z,57.60
2018-05-27T05:51:14.944Z,57.20
2018-05-27T05:53:42.463Z,56.50
2018-05-27T05:56:09.989Z,56.20
2018-05-27T05:58:37.511Z,55.60
2018-05-27T06:01:05.033Z,55.30
2018-05-27T06:03:32.554Z,54.10
2018-05-27T06:06:00.072Z,50.80
2018-05-27T06:08:27.592Z,47.10
2018-05-27T06:10:55.112Z,42.70
2018-05-27T06:13:22.623Z,40.30
2018-05-27T06:15:50.155Z,39.10
2018-05-27T06:18:17.681Z,37.10
2018-05-27T06:20:45.201Z,36.70
2018-05-27T06:23:12.727Z,33.60
2018-05-27T06:25:40.285Z,32.50
2018-05-27T06:28:07.801Z,31.50
2018-05-27T06:30:35.316Z,30.00
2018-05-27T06:33:02.836Z,28.80
2018-05-27T06:35:30.360Z,28.80
2018-05-27T06:37:57.902Z,27.10
2018-05-27T06:40:25.420Z,26.80
2018-05-27T06:42:52.959Z,25.90
2018-05-27T06:45:20.482Z,25.50
2018-05-27T06:47:48.800Z,25.10
2018-05-27T06:50:17.079Z,24.60
2018-05-27T06:52:44.617Z,24.50
2018-05-27T06:55:12.143Z,24.50
2018-05-27T06:57:39.687Z,23.90
2018-05-27T07:00:07.199Z,23.90
2018-05-27T07:02:34.743Z,24.00
2018-05-27T07:05:02.263Z,23.80
2018-05-27T07:07:29.797Z,24.40
2018-05-27T07:09:57.317Z,24.20
2018-05-27T07:12:24.839Z,24.40
2018-05-27T07:14:52.364Z,24.50
2018-05-27T07:17:19.871Z,24.90
2018-05-27T07:19:47.388Z,25.90
2018-05-27T07:22:14.907Z,26.70
2018-05-27T07:24:42.422Z,26.80
2018-05-27T07:27:09.939Z,27.70
2018-05-27T07:29:37.452Z,28.40
2018-05-27T07:32:04.974Z,29.30
2018-05-27T07:34:32.503Z,29.50
2018-05-27T07:37:00.026Z,30.40
2018-05-27T07:39:28.323Z,31.50
2018-05-27T07:41:55.844Z,31.40
2018-05-27T07:44:23.368Z,30.90
2018-05-27T07:46:50.890Z,31.00
2018-05-27T07:49:18.404Z,29.90
2018-05-27T07:51:45.917Z,28.20
2018-05-27T07:54:13.433Z,27.00
2018-05-27T07:56:40.974Z,25.90
2018-05-27T07:59:08.492Z,25.20
2018-05-27T08:01:36.031Z,24.40
2018-05-27T08:04:03.553Z,23.90
2018-05-27T08:06:31.080Z,23.40
2018-05-27T08:08:58.607Z,23.10
2018-05-27T08:11:26.123Z,23.20
2018-05-27T08:13:53.643Z,23.00
2018-05-27T08:16:21.183Z,22.30
2018-05-27T08:18:48.719Z,22.30
2018-05-27T08:21:17.515Z,22.20
2018-05-27T08:23:45.051Z,22.50
2018-05-27T08:26:12.966Z,22.80
2018-05-27T08:28:40.521Z,23.10
2018-05-27T08:31:08.064Z,24.20
2018-05-27T08:33:35.599Z,25.20
2018-05-27T08:36:03.115Z,26.60
2018-05-27T08:38:31.424Z,28.80
2018-05-27T08:40:58.947Z,28.80
2018-05-27T08:43:26.466Z,29.10
2018-05-27T08:45:54.005Z,29.70
2018-05-27T08:48:21.516Z,30.10
2018-05-27T08:50:49.807Z,30.80
2018-05-27T08:53:17.348Z,30.80
2018-05-27T08:55:44.863Z,31.00
2018-05-27T08:58:12.376Z,31.40
2018-05-27T09:00:39.901Z,31.90
2018-05-27T09:03:07.418Z,32.30
2018-05-27T09:05:34.932Z,33.00
2018-05-27T09:08:02.444Z,33.40
2018-05-27T09:10:30.010Z,33.60
2018-05-27T09:12:57.539Z,34.50
2018-05-27T09:15:25.061Z,36.00
2018-05-27T09:17:52.603Z,35.70
2018-05-27T09:20:20.139Z,35.20
2018-05-27T09:22:47.664Z,34.70
2018-05-27T09:25:15.181Z,34.80
2018-05-27T09:27:42.703Z,36.00
2018-05-27T09:30:10.221Z,35.10
2018-05-27T09:32:37.733Z,35.40
2018-05-27T09:35:06.043Z,35.60
2018-05-27T09:37:33.600Z,35.70
2018-05-27T09:40:01.179Z,36.10
2018-05-27T09:42:28.704Z,35.90
2018-05-27T09:44:56.220Z,35.70
2018-05-27T09:47:23.739Z,36.40
2018-05-27T09:49:51.263Z,36.20
2018-05-27T09:52:18.779Z,36.20
2018-05-27T09:54:46.335Z,37.00
2018-05-27T09:57:13.900Z,37.10
2018-05-27T09:59:41.435Z,37.90
2018-05-27T10:02:08.942Z,37.60
2018-05-27T10:04:36.485Z,35.90
2018-05-27T10:07:04.003Z,36.40
2018-05-27T10:09:31.546Z,36.70
2018-05-27T10:11:59.063Z,36.50
2018-05-27T10:14:26.596Z,36.30
2018-05-27T10:16:54.872Z,37.70
2018-05-27T10:19:22.748Z,37.50
2018-05-27T10:21:50.290Z,36.30
2018-05-27T10:24:17.808Z,36.40
2018-05-27T10:26:45.328Z,36.70
2018-05-27T10:29:12.844Z,36.70
2018-05-27T10:31:41.124Z,35.60
2018-05-27T10:34:08.635Z,35.40
2018-05-27T10:36:36.153Z,35.90
2018-05-27T10:39:03.675Z,36.30
2018-05-27T10:41:31.191Z,34.80
2018-05-27T10:43:58.841Z,34.80
2018-05-27T10:46:26.360Z,35.70
2018-05-27T10:48:54.059Z,35.80
2018-05-27T10:51:22.348Z,34.80
2018-05-27T10:53:49.887Z,34.80
2018-05-27T10:56:17.409Z,36.10
2018-05-27T10:58:44.950Z,36.10
2018-05-27T11:01:12.463Z,37.00
2018-05-27T11:03:39.986Z,36.80
2018-05-27T11:06:08.268Z,36.60
2018-05-27T11:08:35.778Z,36.60
2018-05-27T11:11:03.300Z,36.90
2018-05-27T11:13:30.811Z,37.40
2018-05-27T11:15:58.325Z,37.80
2018-05-27T11:18:25.847Z,37.60
2018-05-27T11:20:53.364Z,35.50
2018-05-27T11:23:20.883Z,35.80
2018-05-27T11:25:48.402Z,35.00
2018-05-27T11:28:15.917Z,35.00
2018-05-27T11:30:43.429Z,35.00
2018-05-27T11:33:10.949Z,36.30
2018-05-27T11:35:38.476Z,36.50
2018-05-27T11:38:05.989Z,37.20
2018-05-27T11:40:33.507Z,38.50
2018-05-27T11:43:01.020Z,37.40
2018-05-27T11:45:28.548Z,37.20
2018-05-27T11:47:56.058Z,37.90
2018-05-27T11:50:23.584Z,37.20
2018-05-27T11:52:51.868Z,37.80
2018-05-27T11:55:19.666Z,37.80
2018-05-27T11:57:47.198Z,37.40
2018-05-27T12:00:14.706Z,36.90
2018-05-27T12:02:42.283Z,36.40
2018-05-27T12:05:09.798Z,36.40
2018-05-27T12:07:37.304Z,35.90
2018-05-27T12:10:04.821Z,35.10
2018-05-27T12:12:32.340Z,35.90
2018-05-27T12:15:00.619Z,36.60
2018-05-27T12:17:28.131Z,36.60
2018-05-27T12:19:55.638Z,35.70
2018-05-27T12:22:23.923Z,36.90
2018-05-27T12:24:51.439Z,36.40
2018-05-27T12:27:18.956Z,35.20
2018-05-27T12:29:46.501Z,35.50
2018-05-27T12:32:14.774Z,34.60
2018-05-27T12:34:42.295Z,34.60
2018-05-27T12:37:09.812Z,33.90
2018-05-27T12:39:37.323Z,34.10
2018-05-27T12:42:04.862Z,33.40
2018-05-27T12:44:32.376Z,33.00
2018-05-27T12:46:59.895Z,32.50
2018-05-27T12:49:28.175Z,33.50
2018-05-27T12:51:55.700Z,33.40
2018-05-27T12:54:23.220Z,34.10
2018-05-27T12:56:50.754Z,33.70
2018-05-27T12:59:18.271Z,33.30
2018-05-27T13:01:45.791Z,33.40
2018-05-27T13:04:13.344Z,34.10
2018-05-27T13:06:40.887Z,33.50
2018-05-27T13:09:08.414Z,33.50
2018-05-27T13:11:35.951Z,32.20
2018-05-27T13:14:03.468Z,33.30
2018-05-27T13:16:31.115Z,33.10
2018-05-27T13:18:58.532Z,33.80
2018-05-27T13:21:26.074Z,32.60
2018-05-27T13:23:53.595Z,32.40
2018-05-27T13:26:21.123Z,32.60
2018-05-27T13:28:49.401Z,33.80
2018-05-27T13:31:16.951Z,33.70
2018-05-27T13:33:44.471Z,33.50
2018-05-27T13:36:11.984Z,32.70
2018-05-27T13:38:39.506Z,31.90
2018-05-27T13:41:07.039Z,33.30
2018-05-27T13:43:34.563Z,33.00
2018-05-27T13:46:02.071Z,33.30
2018-05-27T13:48:29.612Z,32.90
2018-05-27T13:50:57.133Z,32.60
2018-05-27T13:53:24.655Z,33.80
2018-05-27T13:55:52.175Z,33.20
2018-05-27T13:58:19.693Z,33.00
2018-05-27T14:00:47.212Z,34.20
2018-05-27T14:03:14.728Z,34.20
2018-05-27T14:05:42.323Z,34.80
2018-05-27T14:08:09.833Z,34.20
2018-05-27T14:10:37.351Z,34.90
2018-05-27T14:13:04.860Z,35.50
2018-05-27T14:15:33.802Z,36.60
2018-05-27T14:18:01.319Z,35.90
2018-05-27T14:20:28.844Z,37.10
2018-05-27T14:22:56.358Z,37.20
2018-05-27T14:25:23.898Z,37.80
2018-05-27T14:27:51.411Z,37.70
2018-05-27T14:30:18.931Z,37.70
2018-05-27T14:32:46.459Z,36.90
2018-05-27T14:35:13.973Z,38.00
2018-05-27T14:37:41.481Z,38.80
2018-05-27T14:40:09.917Z,38.90
2018-05-27T14:42:37.461Z,38.80
2018-05-27T14:45:04.979Z,37.90
2018-05-27T14:47:32.506Z,38.50
2018-05-27T14:50:00.017Z,38.30
2018-05-27T14:52:27.560Z,38.40
2018-05-27T14:54:55.068Z,38.90
2018-05-27T14:57:22.631Z,39.10
2018-05-27T14:59:50.146Z,38.90
2018-05-27T15:02:17.674Z,38.60
2018-05-27T15:04:45.192Z,39.90
2018-05-27T15:07:12.712Z,38.30
2018-05-27T15:09:40.235Z,37.60
2018-05-27T15:12:07.907Z,39.00
2018-05-27T15:14:35.435Z,39.90
2018-05-27T15:17:02.969Z,40.50
2018-05-27T15:19:30.483Z,41.10
2018-05-27T15:21:58.030Z,42.30
2018-05-27T15:24:25.547Z,41.20
2018-05-27T15:26:53.073Z,40.90
2018-05-27T15:29:20.580Z,41.20
2018-05-27T15:31:48.107Z,41.80
2018-05-27T15:34:15.635Z,42.60
2018-05-27T15:36:43.163Z,43.30
2018-05-27T15:39:11.452Z,44.00
2018-05-27T15:41:38.976Z,44.10
2018-05-27T15:44:06.484Z,44.90
2018-05-27T15:46:33.995Z,45.10
2018-05-27T15:49:01.531Z,45.40
2018-05-27T15:51:29.047Z,45.50
2018-05-27T15:53:57.332Z,45.90
2018-05-27T15:56:24.871Z,45.90
2018-05-27T15:58:52.415Z,46.20
2018-05-27T16:01:19.967Z,46.30
2018-05-27T16:03:47.550Z,46.50
2018-05-27T16:06:15.108Z,47.10
2018-05-27T16:08:42.720Z,47.00
2018-05-27T16:11:10.269Z,47.20
2018-05-27T16:13:37.818Z,47.30
2018-05-27T16:16:06.113Z,47.90
2018-05-27T16:18:34.307Z,47.90
2018-05-27T16:21:01.824Z,47.60
2018-05-27T16:23:30.179Z,47.80
2018-05-27T16:25:57.704Z,47.60
2018-05-27T16:28:25.780Z,48.30
2018-05-27T16:30:53.333Z,48.50
2018-05-27T16:33:20.898Z,48.60
2018-05-27T16:35:48.939Z,48.70
2018-05-27T16:38:16.475Z,48.70
2018-05-27T16:40:44.070Z,49.10
2018-05-27T16:43:12.472Z,49.30
2018-05-27T16:45:40.888Z,49.80
2018-05-27T16:48:08.468Z,49.90
2018-05-27T16:50:36.017Z,50.00
2018-05-27T16:53:04.440Z,50.60
2018-05-27T16:55:31.962Z,50.60
2018-05-27T16:58:00.381Z,50.50
2018-05-27T17:00:27.909Z,50.50
2018-05-27T17:02:56.244Z,50.80
2018-05-27T17:05:23.772Z,50.70
2018-05-27T17:07:51.291Z,51.00
2018-05-27T17:10:18.813Z,50.90
2018-05-27T17:12:46.319Z,51.00
2018-05-27T17:15:13.846Z,50.70
2018-05-27T17:17:41.375Z,50.90
2018-05-27T17:20:08.891Z,51.10
2018-05-27T17:22:36.498Z,51.30
2018-05-27T17:25:04.299Z,51.30
2018-05-27T17:27:31.859Z,51.20
2018-05-27T17:29:59.439Z,52.00
2018-05-27T17:32:27.467Z,52.00
2018-05-27T17:34:54.987Z,51.80
2018-05-27T17:37:23.295Z,52.40
2018-05-27T17:39:50.799Z,52.30
2018-05-27T17:42:18.481Z,52.00
2018-05-27T17:44:48.708Z,52.70
2018-05-27T17:47:16.239Z,52.60
2018-05-27T17:49:43.843Z,52.30
2018-05-27T17:52:11.445Z,52.10
2018-05-27T17:54:38.981Z,51.50
2018-05-27T17:57:06.500Z,50.90
2018-05-27T17:59:34.015Z,50.80
2018-05-27T18:02:01.552Z,51.00
2018-05-27T18:04:29.070Z,50.70
2018-05-27T18:06:56.587Z,50.30
2018-05-27T18:09:24.102Z,50.60
2018-05-27T18:11:51.672Z,50.60
2018-05-27T18:14:19.239Z,50.80
2018-05-27T18:16:46.916Z,50.70
2018-05-27T18:19:14.439Z,50.90
2018-05-27T18:21:41.973Z,51.10
2018-05-27T18:24:10.177Z,51.10
2018-05-27T18:26:37.721Z,51.30
2018-05-27T18:29:05.240Z,52.00
2018-05-27T18:31:32.778Z,51.40
2018-05-27T18:34:01.083Z,52.30
2018-05-27T18:36:28.596Z,52.90
2018-05-27T18:38:56.127Z,53.60
2018-05-27T18:41:24.467Z,55.00
2018-05-27T18:43:52.168Z,55.00
2018-05-27T18:46:19.694Z,55.20
2018-05-27T18:48:47.226Z,56.40
2018-05-27T18:51:14.843Z,55.90
2018-05-27T18:53:42.350Z,56.00
2018-05-27T18:56:09.859Z,56.80
2018-05-27T18:58:37.401Z,57.00
2018-05-27T19:01:06.135Z,58.50
2018-05-27T19:03:33.663Z,58.80
2018-05-27T19:06:01.591Z,59.10
2018-05-27T19:08:29.956Z,59.80
2018-05-27T19:10:57.475Z,59.60
2018-05-27T19:13:24.988Z,59.40
2018-05-27T19:15:53.286Z,59.30
2018-05-27T19:18:20.813Z,59.30
2018-05-27T19:20:49.243Z,59.30
2018-05-27T19:23:16.767Z,59.30
2018-05-27T19:25:44.291Z,59.10
2018-05-27T19:28:11.880Z,59.30
2018-05-27T19:30:39.435Z,59.70
2018-05-27T19:36:37.753Z,60.10
2018-05-27T19:39:06.049Z,61.10
2018-05-27T19:41:33.607Z,61.10
2018-05-27T19:44:01.143Z,60.90
2018-05-27T19:46:29.433Z,61.00
2018-05-27T19:48:57.039Z,61.00
2018-05-27T19:51:24.569Z,61.50
2018-05-27T19:53:52.116Z,61.80
2018-05-27T19:56:19.649Z,61.80
2018-05-27T19:58:47.180Z,61.70
2018-05-27T20:01:14.707Z,61.90
2018-05-27T20:03:43.003Z,62.10
2018-05-27T20:06:12.458Z,62.50
2018-05-27T20:08:40.743Z,62.60
2018-05-27T20:11:09.035Z,62.60
2018-05-27T20:13:37.316Z,62.90
2018-05-27T20:16:05.734Z,62.60
2018-05-27T20:18:33.251Z,62.60
2018-05-27T20:21:01.773Z,62.80
2018-05-27T20:23:29.291Z,62.80
2018-05-27T20:25:57.580Z,63.00
2018-05-27T20:28:25.101Z,63.00
2018-05-27T20:30:52.641Z,63.30
2018-05-27T20:33:20.255Z,63.40
2018-05-27T20:35:48.531Z,63.30
2018-05-27T20:38:16.872Z,63.20
2018-05-27T20:40:44.405Z,63.10
2018-05-27T20:43:11.926Z,63.50
2018-05-27T20:45:40.204Z,63.70
2018-05-27T20:48:08.275Z,63.70
2018-05-27T20:50:36.588Z,63.70
2018-05-27T20:53:04.107Z,63.50
2018-05-27T20:55:31.627Z,64.20
2018-05-27T20:57:59.164Z,64.40
2018-05-27T21:00:27.532Z,64.50
2018-05-27T21:02:55.086Z,64.50
2018-05-27T21:05:22.627Z,64.80
2018-05-27T21:07:50.155Z,65.30
2018-05-27T21:10:17.668Z,65.60
2018-05-27T21:12:45.187Z,65.60
2018-05-27T21:15:12.706Z,66.00
2018-05-27T21:17:40.215Z,66.00
2018-05-27T21:20:07.762Z,66.10
2018-05-27T21:22:35.365Z,66.10
2018-05-27T21:25:02.844Z,66.40
2018-05-27T21:27:30.359Z,67.00
2018-05-27T21:29:57.876Z,66.90
2018-05-27T21:32:25.409Z,67.10
2018-05-27T21:34:53.047Z,67.10
2018-05-27T21:37:20.575Z,67.40
2018-05-27T21:39:48.699Z,67.40
2018-05-27T21:42:16.725Z,67.40
2018-05-27T21:44:44.682Z,67.50
2018-05-27T21:47:12.215Z,67.50
2018-05-27T21:49:39.752Z,67.40
2018-05-27T21:52:07.279Z,67.30
2018-05-27T21:54:34.802Z,67.30
2018-05-27T21:57:02.329Z,67.80
2018-05-27T21:59:29.856Z,67.90
2018-05-27T22:01:57.375Z,68.00
2018-05-27T22:04:24.902Z,68.10
2018-05-27T22:06:52.432Z,68.00
2018-05-27T22:09:19.955Z,68.50
2018-05-27T22:11:47.468Z,68.70
2018-05-27T22:14:14.992Z,68.70
2018-05-27T22:16:42.513Z,69.00
2018-05-27T22:19:10.036Z,69.20
2018-05-27T22:21:37.557Z,69.50
2018-05-27T22:24:05.099Z,69.70
2018-05-27T22:26:32.639Z,69.80
2018-05-27T22:29:00.171Z,70.10
2018-05-27T22:31:27.695Z,70.30
2018-05-27T22:33:55.220Z,70.30
2018-05-27T22:36:22.739Z,70.40
2018-05-27T22:38:50.268Z,70.50
2018-05-27T22:41:17.792Z,70.70
2018-05-27T22:43:45.317Z,70.90
2018-05-27T22:46:12.851Z,71.00
2018-05-27T22:48:40.371Z,71.00
2018-05-27T22:51:07.895Z,70.90
2018-05-27T22:53:35.425Z,71.00
2018-05-27T22:56:02.939Z,71.00
2018-05-27T22:58:30.467Z,71.30
2018-05-27T23:00:57.987Z,71.30
2018-05-27T23:03:25.509Z,71.30
2018-05-27T23:05:53.031Z,71.50
2018-05-27T23:08:20.555Z,71.50
2018-05-27T23:10:48.086Z,72.20
2018-05-27T23:13:15.607Z,72.50
2018-05-27T23:15:43.123Z,72.40
2018-05-27T23:18:10.646Z,72.50
2018-05-27T23:20:38.166Z,72.80
2018-05-27T23:23:05.683Z,72.80
2018-05-27T23:25:33.208Z,72.90
2018-05-27T23:28:00.743Z,73.00
2018-05-27T23:30:29.480Z,72.90
2018-05-27T23:32:57.003Z,72.90
2018-05-27T23:35:24.528Z,73.30
2018-05-27T23:37:52.047Z,73.60
2018-05-27T23:40:19.573Z,73.90
2018-05-27T23:42:47.877Z,74.00
2018-05-27T23:45:15.394Z,73.90
2018-05-27T23:47:42.919Z,74.00
2018-05-27T23:50:10.439Z,74.30
2018-05-27T23:52:38.723Z,74.70
2018-05-27T23:55:06.246Z,74.50
2018-05-27T23:57:33.768Z,74.90
